sensor_id;sensor_type;location;lat;lon;timestamp;P1;durP1;ratioP1;P2;durP2;ratioP2
8476;SDS011;4275;42.854;23.222;2022-07-23T00:01:20;20.27;;;19.08;;
8476;SDS011;4275;42.854;23.222;2022-07-23T00:03:48;20.60;;;19.40;;
8476;SDS011;4275;42.854;23.222;2022-07-23T00:06:17;19.88;;;18.67;;
8476;SDS011;4275;42.854;23.222;2022-07-23T00:08:44;20.48;;;19.27;;
8476;SDS011;4275;42.854;23.222;2022-07-23T00:11:12;20.33;;;19.13;;
8476;SDS011;4275;42.854;23.222;2022-07-23T00:13:39;20.33;;;19.13;;
8476;SDS011;4275;42.854;23.222;2022-07-23T00:16:06;20.30;;;19.10;;
8476;SDS011;4275;42.854;23.222;2022-07-23T00:18:34;20.50;;;19.30;;
8476;SDS011;4275;42.854;23.222;2022-07-23T00:21:01;20.63;;;19.42;;
8476;SDS011;4275;42.854;23.222;2022-07-23T00:23:29;19.73;;;18.63;;
8476;SDS011;4275;42.854;23.222;2022-07-23T00:25:56;19.75;;;18.65;;
8476;SDS011;4275;42.854;23.222;2022-07-23T00:28:25;19.60;;;18.50;;
8476;SDS011;4275;42.854;23.222;2022-07-23T00:30:52;19.77;;;18.67;;
8476;SDS011;4275;42.854;23.222;2022-07-23T00:33:19;19.80;;;18.70;;
8476;SDS011;4275;42.854;23.222;2022-07-23T00:35:46;19.80;;;18.70;;
8476;SDS011;4275;42.854;23.222;2022-07-23T00:38:13;19.45;;;18.35;;
8476;SDS011;4275;42.854;23.222;2022-07-23T00:40:40;19.63;;;18.52;;
8476;SDS011;4275;42.854;23.222;2022-07-23T00:43:07;19.15;;;18.13;;
8476;SDS011;4275;42.854;23.222;2022-07-23T00:45:36;19.08;;;18.08;;
8476;SDS011;4275;42.854;23.222;2022-07-23T00:48:03;18.65;;;17.65;;
8476;SDS011;4275;42.854;23.222;2022-07-23T00:50:30;18.30;;;17.30;;
8476;SDS011;4275;42.854;23.222;2022-07-23T00:52:57;18.77;;;17.77;;
8476;SDS011;4275;42.854;23.222;2022-07-23T00:55:24;18.52;;;17.52;;
8476;SDS011;4275;42.854;23.222;2022-07-23T00:57:51;18.92;;;17.92;;
8476;SDS011;4275;42.854;23.222;2022-07-23T01:00:20;18.73;;;17.73;;
8476;SDS011;4275;42.854;23.222;2022-07-23T01:02:49;18.80;;;17.80;;
8476;SDS011;4275;42.854;23.222;2022-07-23T01:05:16;18.17;;;17.27;;
8476;SDS011;4275;42.854;23.222;2022-07-23T01:07:47;18.58;;;17.58;;
8476;SDS011;4275;42.854;23.222;2022-07-23T01:10:15;18.75;;;17.77;;
8476;SDS011;4275;42.854;23.222;2022-07-23T01:12:57;17.98;;;17.08;;
8476;SDS011;4275;42.854;23.222;2022-07-23T01:15:24;18.40;;;17.50;;
8476;SDS011;4275;42.854;23.222;2022-07-23T01:17:53;18.17;;;17.27;;
8476;SDS011;4275;42.854;23.222;2022-07-23T01:20:20;17.70;;;16.80;;
8476;SDS011;4275;42.854;23.222;2022-07-23T01:22:49;17.75;;;16.95;;
8476;SDS011;4275;42.854;23.222;2022-07-23T01:25:16;17.67;;;16.88;;
8476;SDS011;4275;42.854;23.222;2022-07-23T01:27:44;19.10;;;18.10;;
8476;SDS011;4275;42.854;23.222;2022-07-23T01:30:11;17.80;;;16.90;;
8476;SDS011;4275;42.854;23.222;2022-07-23T01:32:39;17.27;;;16.48;;
8476;SDS011;4275;42.854;23.222;2022-07-23T01:35:06;17.00;;;16.20;;
8476;SDS011;4275;42.854;23.222;2022-07-23T01:37:35;17.15;;;16.35;;
8476;SDS011;4275;42.854;23.222;2022-07-23T01:40:04;17.05;;;16.25;;
8476;SDS011;4275;42.854;23.222;2022-07-23T01:42:32;17.42;;;16.63;;
8476;SDS011;4275;42.854;23.222;2022-07-23T01:44:59;16.92;;;16.17;;
8476;SDS011;4275;42.854;23.222;2022-07-23T01:47:26;17.30;;;16.50;;
8476;SDS011;4275;42.854;23.222;2022-07-23T01:49:53;17.38;;;16.58;;
8476;SDS011;4275;42.854;23.222;2022-07-23T01:52:20;17.40;;;16.60;;
8476;SDS011;4275;42.854;23.222;2022-07-23T01:54:47;17.40;;;16.60;;
8476;SDS011;4275;42.854;23.222;2022-07-23T01:57:16;17.40;;;16.60;;
8476;SDS011;4275;42.854;23.222;2022-07-23T01:59:43;18.00;;;17.10;;
8476;SDS011;4275;42.854;23.222;2022-07-23T02:02:10;18.80;;;17.88;;
8476;SDS011;4275;42.854;23.222;2022-07-23T02:04:37;17.92;;;17.02;;
8476;SDS011;4275;42.854;23.222;2022-07-23T02:07:04;18.08;;;17.17;;
8476;SDS011;4275;42.854;23.222;2022-07-23T02:09:32;18.60;;;17.60;;
8476;SDS011;4275;42.854;23.222;2022-07-23T02:11:59;18.10;;;17.20;;
8476;SDS011;4275;42.854;23.222;2022-07-23T02:14:28;18.05;;;17.15;;
8476;SDS011;4275;42.854;23.222;2022-07-23T02:16:55;17.50;;;16.60;;
8476;SDS011;4275;42.854;23.222;2022-07-23T02:19:22;18.08;;;17.17;;
8476;SDS011;4275;42.854;23.222;2022-07-23T02:21:49;18.08;;;17.17;;
8476;SDS011;4275;42.854;23.222;2022-07-23T02:24:17;18.13;;;17.23;;
8476;SDS011;4275;42.854;23.222;2022-07-23T02:26:44;18.08;;;17.17;;
8476;SDS011;4275;42.854;23.222;2022-07-23T02:29:11;18.52;;;17.55;;
8476;SDS011;4275;42.854;23.222;2022-07-23T02:31:40;17.90;;;17.00;;
8476;SDS011;4275;42.854;23.222;2022-07-23T02:34:07;18.20;;;17.30;;
8476;SDS011;4275;42.854;23.222;2022-07-23T02:36:36;18.40;;;17.50;;
8476;SDS011;4275;42.854;23.222;2022-07-23T02:39:04;18.50;;;17.60;;
8476;SDS011;4275;42.854;23.222;2022-07-23T02:41:31;18.23;;;17.33;;
8476;SDS011;4275;42.854;23.222;2022-07-23T02:43:58;18.73;;;17.73;;
8476;SDS011;4275;42.854;23.222;2022-07-23T02:46:25;18.15;;;17.25;;
8476;SDS011;4275;42.854;23.222;2022-07-23T02:48:54;19.05;;;18.05;;
8476;SDS011;4275;42.854;23.222;2022-07-23T02:51:21;18.20;;;17.30;;
8476;SDS011;4275;42.854;23.222;2022-07-23T02:53:48;18.40;;;17.50;;
8476;SDS011;4275;42.854;23.222;2022-07-23T02:56:15;18.48;;;17.58;;
8476;SDS011;4275;42.854;23.222;2022-07-23T02:58:42;18.35;;;17.45;;
8476;SDS011;4275;42.854;23.222;2022-07-23T03:01:09;17.50;;;16.70;;
8476;SDS011;4275;42.854;23.222;2022-07-23T03:03:36;17.23;;;16.42;;
8476;SDS011;4275;42.854;23.222;2022-07-23T03:06:05;17.50;;;16.70;;
8476;SDS011;4275;42.854;23.222;2022-07-23T03:08:32;16.98;;;16.17;;
8476;SDS011;4275;42.854;23.222;2022-07-23T03:10:59;17.58;;;16.77;;
8476;SDS011;4275;42.854;23.222;2022-07-23T03:13:26;17.65;;;16.85;;
8476;SDS011;4275;42.854;23.222;2022-07-23T03:15:54;17.70;;;16.90;;
8476;SDS011;4275;42.854;23.222;2022-07-23T03:18:21;17.13;;;16.33;;
8476;SDS011;4275;42.854;23.222;2022-07-23T03:20:49;17.13;;;16.33;;
8476;SDS011;4275;42.854;23.222;2022-07-23T03:23:17;16.88;;;16.17;;
8476;SDS011;4275;42.854;23.222;2022-07-23T03:25:44;17.30;;;16.50;;
8476;SDS011;4275;42.854;23.222;2022-07-23T03:28:13;17.60;;;16.80;;
8476;SDS011;4275;42.854;23.222;2022-07-23T03:30:40;17.10;;;16.30;;
8476;SDS011;4275;42.854;23.222;2022-07-23T03:33:08;17.15;;;16.35;;
8476;SDS011;4275;42.854;23.222;2022-07-23T03:35:35;17.48;;;16.67;;
8476;SDS011;4275;42.854;23.222;2022-07-23T03:38:02;17.50;;;16.70;;
8476;SDS011;4275;42.854;23.222;2022-07-23T03:40:30;17.60;;;16.80;;
8476;SDS011;4275;42.854;23.222;2022-07-23T03:42:57;17.08;;;16.27;;
8476;SDS011;4275;42.854;23.222;2022-07-23T03:45:24;16.88;;;16.17;;
8476;SDS011;4275;42.854;23.222;2022-07-23T03:47:52;17.05;;;16.25;;
8476;SDS011;4275;42.854;23.222;2022-07-23T03:50:19;17.33;;;16.52;;
8476;SDS011;4275;42.854;23.222;2022-07-23T03:52:46;17.50;;;16.70;;
8476;SDS011;4275;42.854;23.222;2022-07-23T03:55:13;17.67;;;16.77;;
8476;SDS011;4275;42.854;23.222;2022-07-23T03:57:42;18.00;;;17.10;;
8476;SDS011;4275;42.854;23.222;2022-07-23T04:00:10;18.23;;;17.33;;
8476;SDS011;4275;42.854;23.222;2022-07-23T04:02:38;18.05;;;17.10;;
8476;SDS011;4275;42.854;23.222;2022-07-23T04:05:06;18.70;;;17.70;;
8476;SDS011;4275;42.854;23.222;2022-07-23T04:07:33;18.23;;;17.23;;
8476;SDS011;4275;42.854;23.222;2022-07-23T04:10:00;18.80;;;17.80;;
8476;SDS011;4275;42.854;23.222;2022-07-23T04:12:28;18.77;;;17.70;;
8476;SDS011;4275;42.854;23.222;2022-07-23T04:14:56;19.25;;;18.15;;
8476;SDS011;4275;42.854;23.222;2022-07-23T04:17:23;18.58;;;17.58;;
8476;SDS011;4275;42.854;23.222;2022-07-23T04:19:50;20.15;;;18.95;;
8476;SDS011;4275;42.854;23.222;2022-07-23T04:22:17;20.80;;;19.50;;
8476;SDS011;4275;42.854;23.222;2022-07-23T04:24:44;19.88;;;18.67;;
8476;SDS011;4275;42.854;23.222;2022-07-23T04:27:11;20.30;;;19.10;;
8476;SDS011;4275;42.854;23.222;2022-07-23T04:29:38;20.23;;;18.92;;
8476;SDS011;4275;42.854;23.222;2022-07-23T04:32:07;20.83;;;19.52;;
8476;SDS011;4275;42.854;23.222;2022-07-23T04:34:34;20.65;;;19.35;;
8476;SDS011;4275;42.854;23.222;2022-07-23T04:37:01;20.88;;;19.58;;
8476;SDS011;4275;42.854;23.222;2022-07-23T04:39:28;21.35;;;19.95;;
8476;SDS011;4275;42.854;23.222;2022-07-23T04:41:55;21.13;;;19.83;;
8476;SDS011;4275;42.854;23.222;2022-07-23T04:44:22;21.30;;;20.00;;
8476;SDS011;4275;42.854;23.222;2022-07-23T04:46:49;21.15;;;19.85;;
8476;SDS011;4275;42.854;23.222;2022-07-23T04:49:18;21.75;;;20.42;;
8476;SDS011;4275;42.854;23.222;2022-07-23T04:51:45;21.30;;;20.00;;
8476;SDS011;4275;42.854;23.222;2022-07-23T04:54:12;22.50;;;21.10;;
8476;SDS011;4275;42.854;23.222;2022-07-23T04:56:39;21.98;;;20.58;;
8476;SDS011;4275;42.854;23.222;2022-07-23T04:59:06;21.75;;;20.40;;
8476;SDS011;4275;42.854;23.222;2022-07-23T05:01:33;21.58;;;20.17;;
8476;SDS011;4275;42.854;23.222;2022-07-23T05:04:00;21.75;;;20.45;;
8476;SDS011;4275;42.854;23.222;2022-07-23T05:06:29;20.95;;;19.65;;
8476;SDS011;4275;42.854;23.222;2022-07-23T05:08:56;20.95;;;19.65;;
8476;SDS011;4275;42.854;23.222;2022-07-23T05:11:23;20.85;;;19.55;;
8476;SDS011;4275;42.854;23.222;2022-07-23T05:13:50;20.15;;;18.85;;
8476;SDS011;4275;42.854;23.222;2022-07-23T05:16:17;20.52;;;19.13;;
8476;SDS011;4275;42.854;23.222;2022-07-23T05:18:44;20.17;;;18.88;;
8476;SDS011;4275;42.854;23.222;2022-07-23T05:21:11;20.63;;;19.33;;
8476;SDS011;4275;42.854;23.222;2022-07-23T05:23:40;20.38;;;19.08;;
8476;SDS011;4275;42.854;23.222;2022-07-23T05:26:07;19.90;;;18.60;;
8476;SDS011;4275;42.854;23.222;2022-07-23T05:28:34;20.25;;;18.85;;
8476;SDS011;4275;42.854;23.222;2022-07-23T05:31:01;19.75;;;18.45;;
8476;SDS011;4275;42.854;23.222;2022-07-23T05:33:28;18.73;;;17.52;;
8476;SDS011;4275;42.854;23.222;2022-07-23T05:35:59;19.45;;;18.15;;
8476;SDS011;4275;42.854;23.222;2022-07-23T05:38:28;19.15;;;17.90;;
8476;SDS011;4275;42.854;23.222;2022-07-23T05:40:56;19.23;;;18.02;;
8476;SDS011;4275;42.854;23.222;2022-07-23T05:43:23;18.95;;;17.75;;
8476;SDS011;4275;42.854;23.222;2022-07-23T05:45:50;18.85;;;17.65;;
8476;SDS011;4275;42.854;23.222;2022-07-23T05:48:17;19.40;;;18.10;;
8476;SDS011;4275;42.854;23.222;2022-07-23T05:50:45;20.95;;;19.60;;
8476;SDS011;4275;42.854;23.222;2022-07-23T05:53:12;19.60;;;18.40;;
8476;SDS011;4275;42.854;23.222;2022-07-23T05:55:40;19.17;;;17.98;;
8476;SDS011;4275;42.854;23.222;2022-07-23T05:58:08;18.83;;;17.63;;
8476;SDS011;4275;42.854;23.222;2022-07-23T06:00:35;19.20;;;18.00;;
8476;SDS011;4275;42.854;23.222;2022-07-23T06:03:02;18.83;;;17.67;;
8476;SDS011;4275;42.854;23.222;2022-07-23T06:05:29;20.75;;;19.40;;
8476;SDS011;4275;42.854;23.222;2022-07-23T06:07:56;19.60;;;18.40;;
8476;SDS011;4275;42.854;23.222;2022-07-23T06:10:23;19.05;;;17.95;;
8476;SDS011;4275;42.854;23.222;2022-07-23T06:12:50;18.90;;;17.80;;
8476;SDS011;4275;42.854;23.222;2022-07-23T06:15:19;19.40;;;18.20;;
8476;SDS011;4275;42.854;23.222;2022-07-23T06:17:46;20.48;;;19.27;;
8476;SDS011;4275;42.854;23.222;2022-07-23T06:20:13;19.73;;;18.52;;
8476;SDS011;4275;42.854;23.222;2022-07-23T06:22:40;19.40;;;18.20;;
8476;SDS011;4275;42.854;23.222;2022-07-23T06:25:08;19.48;;;18.17;;
8476;SDS011;4275;42.854;23.222;2022-07-23T06:27:35;19.38;;;18.17;;
8476;SDS011;4275;42.854;23.222;2022-07-23T06:30:02;19.38;;;18.17;;
8476;SDS011;4275;42.854;23.222;2022-07-23T06:32:32;20.23;;;18.92;;
8476;SDS011;4275;42.854;23.222;2022-07-23T06:34:59;19.45;;;18.25;;
8476;SDS011;4275;42.854;23.222;2022-07-23T06:37:26;19.35;;;18.15;;
8476;SDS011;4275;42.854;23.222;2022-07-23T06:39:53;19.23;;;18.02;;
8476;SDS011;4275;42.854;23.222;2022-07-23T06:42:21;19.27;;;18.08;;
8476;SDS011;4275;42.854;23.222;2022-07-23T06:44:48;19.25;;;18.05;;
8476;SDS011;4275;42.854;23.222;2022-07-23T06:47:15;19.80;;;18.60;;
8476;SDS011;4275;42.854;23.222;2022-07-23T06:49:43;19.52;;;18.33;;
8476;SDS011;4275;42.854;23.222;2022-07-23T06:52:10;19.30;;;18.10;;
8476;SDS011;4275;42.854;23.222;2022-07-23T06:54:37;19.85;;;18.65;;
8476;SDS011;4275;42.854;23.222;2022-07-23T06:57:05;20.15;;;18.95;;
8476;SDS011;4275;42.854;23.222;2022-07-23T06:59:32;19.88;;;18.67;;
8476;SDS011;4275;42.854;23.222;2022-07-23T07:02:01;20.02;;;18.83;;
8476;SDS011;4275;42.854;23.222;2022-07-23T07:04:29;19.38;;;18.17;;
8476;SDS011;4275;42.854;23.222;2022-07-23T07:06:58;19.73;;;18.42;;
8476;SDS011;4275;42.854;23.222;2022-07-23T07:09:25;19.15;;;17.95;;
8476;SDS011;4275;42.854;23.222;2022-07-23T07:11:52;19.30;;;18.02;;
8476;SDS011;4275;42.854;23.222;2022-07-23T07:14:19;18.88;;;17.67;;
8476;SDS011;4275;42.854;23.222;2022-07-23T07:16:47;19.23;;;18.02;;
8476;SDS011;4275;42.854;23.222;2022-07-23T07:19:14;19.30;;;18.10;;
8476;SDS011;4275;42.854;23.222;2022-07-23T07:21:41;19.58;;;18.38;;
8476;SDS011;4275;42.854;23.222;2022-07-23T07:24:10;19.25;;;18.05;;
8476;SDS011;4275;42.854;23.222;2022-07-23T07:26:37;20.00;;;18.80;;
8476;SDS011;4275;42.854;23.222;2022-07-23T07:29:05;19.42;;;18.23;;
8476;SDS011;4275;42.854;23.222;2022-07-23T07:31:32;19.50;;;18.30;;
8476;SDS011;4275;42.854;23.222;2022-07-23T07:33:59;19.33;;;18.13;;
8476;SDS011;4275;42.854;23.222;2022-07-23T07:36:26;19.20;;;18.00;;
8476;SDS011;4275;42.854;23.222;2022-07-23T07:38:53;19.50;;;18.30;;
8476;SDS011;4275;42.854;23.222;2022-07-23T07:41:22;20.00;;;18.73;;
8476;SDS011;4275;42.854;23.222;2022-07-23T07:43:49;19.17;;;17.98;;
8476;SDS011;4275;42.854;23.222;2022-07-23T07:46:16;19.80;;;18.50;;
8476;SDS011;4275;42.854;23.222;2022-07-23T07:48:44;19.77;;;18.50;;
8476;SDS011;4275;42.854;23.222;2022-07-23T07:51:11;19.25;;;18.05;;
8476;SDS011;4275;42.854;23.222;2022-07-23T07:53:38;19.58;;;18.27;;
8476;SDS011;4275;42.854;23.222;2022-07-23T07:56:05;19.90;;;18.60;;
8476;SDS011;4275;42.854;23.222;2022-07-23T07:58:33;19.70;;;18.40;;
8476;SDS011;4275;42.854;23.222;2022-07-23T08:01:01;19.40;;;18.20;;
8476;SDS011;4275;42.854;23.222;2022-07-23T08:03:28;19.35;;;18.15;;
8476;SDS011;4275;42.854;23.222;2022-07-23T08:05:55;19.42;;;18.23;;
8476;SDS011;4275;42.854;23.222;2022-07-23T08:08:22;19.80;;;18.60;;
8476;SDS011;4275;42.854;23.222;2022-07-23T08:10:50;19.45;;;18.25;;
8476;SDS011;4275;42.854;23.222;2022-07-23T08:13:17;19.92;;;18.73;;
8476;SDS011;4275;42.854;23.222;2022-07-23T08:15:45;19.60;;;18.40;;
8476;SDS011;4275;42.854;23.222;2022-07-23T08:18:13;19.88;;;18.67;;
8476;SDS011;4275;42.854;23.222;2022-07-23T08:20:40;19.80;;;18.60;;
8476;SDS011;4275;42.854;23.222;2022-07-23T08:23:07;20.02;;;18.83;;
8476;SDS011;4275;42.854;23.222;2022-07-23T08:25:36;19.77;;;18.58;;
8476;SDS011;4275;42.854;23.222;2022-07-23T08:28:07;20.23;;;19.02;;
8476;SDS011;4275;42.854;23.222;2022-07-23T08:30:35;20.23;;;19.02;;
8476;SDS011;4275;42.854;23.222;2022-07-23T08:33:05;20.75;;;19.50;;
8476;SDS011;4275;42.854;23.222;2022-07-23T08:35:36;21.02;;;19.73;;
8476;SDS011;4275;42.854;23.222;2022-07-23T08:38:05;20.27;;;19.08;;
8476;SDS011;4275;42.854;23.222;2022-07-23T08:40:35;20.85;;;19.65;;
8476;SDS011;4275;42.854;23.222;2022-07-23T08:43:05;21.48;;;20.17;;
8476;SDS011;4275;42.854;23.222;2022-07-23T08:45:35;20.67;;;19.48;;
8476;SDS011;4275;42.854;23.222;2022-07-23T08:48:07;20.30;;;19.10;;
8476;SDS011;4275;42.854;23.222;2022-07-23T08:50:35;21.35;;;20.05;;
8476;SDS011;4275;42.854;23.222;2022-07-23T08:53:05;21.50;;;20.20;;
8476;SDS011;4275;42.854;23.222;2022-07-23T08:55:33;22.52;;;21.13;;
8476;SDS011;4275;42.854;23.222;2022-07-23T08:58:01;20.88;;;19.63;;
8476;SDS011;4275;42.854;23.222;2022-07-23T09:00:28;21.48;;;20.17;;
8476;SDS011;4275;42.854;23.222;2022-07-23T09:02:55;23.58;;;22.17;;
8476;SDS011;4275;42.854;23.222;2022-07-23T09:05:24;23.35;;;21.95;;
8476;SDS011;4275;42.854;23.222;2022-07-23T09:08:07;20.70;;;19.40;;
8476;SDS011;4275;42.854;23.222;2022-07-23T09:10:48;20.40;;;19.13;;
8476;SDS011;4275;42.854;23.222;2022-07-23T09:13:29;20.75;;;19.45;;
8476;SDS011;4275;42.854;23.222;2022-07-23T09:15:58;21.38;;;20.08;;
8476;SDS011;4275;42.854;23.222;2022-07-23T09:18:33;21.05;;;19.75;;
8476;SDS011;4275;42.854;23.222;2022-07-23T09:21:12;22.25;;;20.95;;
8476;SDS011;4275;42.854;23.222;2022-07-23T09:23:45;24.33;;;22.90;;
8476;SDS011;4275;42.854;23.222;2022-07-23T09:26:20;23.10;;;21.70;;
8476;SDS011;4275;42.854;23.222;2022-07-23T09:28:50;21.45;;;20.15;;
8476;SDS011;4275;42.854;23.222;2022-07-23T09:31:19;21.63;;;20.33;;
8476;SDS011;4275;42.854;23.222;2022-07-23T09:33:46;21.35;;;20.05;;
8476;SDS011;4275;42.854;23.222;2022-07-23T09:36:15;21.80;;;20.50;;
8476;SDS011;4275;42.854;23.222;2022-07-23T09:38:48;21.13;;;19.83;;
8476;SDS011;4275;42.854;23.222;2022-07-23T09:41:17;21.33;;;20.02;;
8476;SDS011;4275;42.854;23.222;2022-07-23T09:43:44;21.27;;;20.02;;
8476;SDS011;4275;42.854;23.222;2022-07-23T09:46:18;22.33;;;21.02;;
8476;SDS011;4275;42.854;23.222;2022-07-23T09:48:46;22.48;;;21.15;;
8476;SDS011;4275;42.854;23.222;2022-07-23T09:51:15;22.40;;;21.10;;
8476;SDS011;4275;42.854;23.222;2022-07-23T09:53:44;22.92;;;21.52;;
8476;SDS011;4275;42.854;23.222;2022-07-23T09:56:11;22.88;;;21.48;;
8476;SDS011;4275;42.854;23.222;2022-07-23T09:58:40;21.27;;;19.98;;
8476;SDS011;4275;42.854;23.222;2022-07-23T10:01:12;21.58;;;20.27;;
8476;SDS011;4275;42.854;23.222;2022-07-23T10:03:41;20.65;;;19.42;;
8476;SDS011;4275;42.854;23.222;2022-07-23T10:06:09;20.38;;;19.17;;
8476;SDS011;4275;42.854;23.222;2022-07-23T10:08:38;20.85;;;19.55;;
8476;SDS011;4275;42.854;23.222;2022-07-23T10:11:07;20.13;;;18.92;;
8476;SDS011;4275;42.854;23.222;2022-07-23T10:13:38;21.45;;;20.15;;
8476;SDS011;4275;42.854;23.222;2022-07-23T10:16:20;20.70;;;19.50;;
8476;SDS011;4275;42.854;23.222;2022-07-23T10:18:48;20.70;;;19.50;;
8476;SDS011;4275;42.854;23.222;2022-07-23T10:21:17;20.83;;;19.60;;
8476;SDS011;4275;42.854;23.222;2022-07-23T10:23:57;21.83;;;20.52;;
8476;SDS011;4275;42.854;23.222;2022-07-23T10:26:38;22.58;;;21.20;;
8476;SDS011;4275;42.854;23.222;2022-07-23T10:29:18;22.92;;;21.55;;
8476;SDS011;4275;42.854;23.222;2022-07-23T10:31:56;23.25;;;21.85;;
8476;SDS011;4275;42.854;23.222;2022-07-23T10:34:30;22.88;;;21.48;;
8476;SDS011;4275;42.854;23.222;2022-07-23T10:37:12;22.23;;;20.90;;
8476;SDS011;4275;42.854;23.222;2022-07-23T10:39:46;22.63;;;21.23;;
8476;SDS011;4275;42.854;23.222;2022-07-23T10:42:14;22.77;;;21.38;;
8476;SDS011;4275;42.854;23.222;2022-07-23T10:44:43;23.52;;;22.10;;
8476;SDS011;4275;42.854;23.222;2022-07-23T10:47:12;23.13;;;21.70;;
8476;SDS011;4275;42.854;23.222;2022-07-23T10:50:22;23.73;;;22.23;;
8476;SDS011;4275;42.854;23.222;2022-07-23T10:55:47;23.63;;;22.13;;
8476;SDS011;4275;42.854;23.222;2022-07-23T10:58:23;23.30;;;21.83;;
8476;SDS011;4275;42.854;23.222;2022-07-23T11:03:58;23.25;;;21.75;;
8476;SDS011;4275;42.854;23.222;2022-07-23T11:09:26;22.77;;;21.38;;
8476;SDS011;4275;42.854;23.222;2022-07-23T11:15:02;22.52;;;21.13;;
8476;SDS011;4275;42.854;23.222;2022-07-23T11:17:31;22.85;;;21.45;;
8476;SDS011;4275;42.854;23.222;2022-07-23T11:20:21;23.00;;;21.60;;
8476;SDS011;4275;42.854;23.222;2022-07-23T11:22:50;22.90;;;21.50;;
8476;SDS011;4275;42.854;23.222;2022-07-23T11:25:29;23.27;;;21.88;;
8476;SDS011;4275;42.854;23.222;2022-07-23T11:28:08;23.52;;;22.10;;
8476;SDS011;4275;42.854;23.222;2022-07-23T11:30:38;21.80;;;20.45;;
8476;SDS011;4275;42.854;23.222;2022-07-23T11:33:21;21.88;;;20.52;;
8476;SDS011;4275;42.854;23.222;2022-07-23T11:35:59;21.55;;;20.25;;
8476;SDS011;4275;42.854;23.222;2022-07-23T11:38:30;21.75;;;20.45;;
8476;SDS011;4275;42.854;23.222;2022-07-23T11:40:58;21.83;;;20.42;;
8476;SDS011;4275;42.854;23.222;2022-07-23T11:43:25;22.15;;;20.75;;
8476;SDS011;4275;42.854;23.222;2022-07-23T11:45:56;21.75;;;20.40;;
8476;SDS011;4275;42.854;23.222;2022-07-23T11:48:25;21.45;;;20.15;;
8476;SDS011;4275;42.854;23.222;2022-07-23T11:50:54;22.58;;;21.17;;
8476;SDS011;4275;42.854;23.222;2022-07-23T11:53:23;22.67;;;21.27;;
8476;SDS011;4275;42.854;23.222;2022-07-23T11:55:50;22.20;;;20.90;;
8476;SDS011;4275;42.854;23.222;2022-07-23T11:58:18;22.38;;;20.98;;
8476;SDS011;4275;42.854;23.222;2022-07-23T12:00:45;22.35;;;20.95;;
8476;SDS011;4275;42.854;23.222;2022-07-23T12:03:13;23.10;;;21.60;;
8476;SDS011;4275;42.854;23.222;2022-07-23T12:05:40;22.48;;;21.08;;
8476;SDS011;4275;42.854;23.222;2022-07-23T12:08:08;22.95;;;21.55;;
8476;SDS011;4275;42.854;23.222;2022-07-23T12:10:37;23.98;;;22.42;;
8476;SDS011;4275;42.854;23.222;2022-07-23T12:13:07;24.45;;;22.95;;
8476;SDS011;4275;42.854;23.222;2022-07-23T12:15:36;22.73;;;21.33;;
8476;SDS011;4275;42.854;23.222;2022-07-23T12:18:05;23.35;;;21.85;;
8476;SDS011;4275;42.854;23.222;2022-07-23T12:20:35;23.83;;;22.33;;
8476;SDS011;4275;42.854;23.222;2022-07-23T12:23:04;23.60;;;22.10;;
8476;SDS011;4275;42.854;23.222;2022-07-23T12:25:32;22.95;;;21.55;;
8476;SDS011;4275;42.854;23.222;2022-07-23T12:28:02;22.83;;;21.33;;
8476;SDS011;4275;42.854;23.222;2022-07-23T12:30:32;28.48;;;26.67;;
8476;SDS011;4275;42.854;23.222;2022-07-23T12:33:03;23.77;;;22.27;;
8476;SDS011;4275;42.854;23.222;2022-07-23T12:35:34;23.13;;;21.63;;
8476;SDS011;4275;42.854;23.222;2022-07-23T12:38:05;23.85;;;22.35;;
8476;SDS011;4275;42.854;23.222;2022-07-23T12:40:35;23.73;;;22.23;;
8476;SDS011;4275;42.854;23.222;2022-07-23T12:43:05;23.75;;;22.25;;
8476;SDS011;4275;42.854;23.222;2022-07-23T12:45:43;23.48;;;21.98;;
8476;SDS011;4275;42.854;23.222;2022-07-23T12:48:16;24.40;;;22.60;;
8476;SDS011;4275;42.854;23.222;2022-07-23T12:50:50;23.35;;;21.88;;
8476;SDS011;4275;42.854;23.222;2022-07-23T12:53:20;21.60;;;20.20;;
8476;SDS011;4275;42.854;23.222;2022-07-23T12:55:49;21.67;;;20.27;;
8476;SDS011;4275;42.854;23.222;2022-07-23T12:58:17;21.55;;;20.15;;
8476;SDS011;4275;42.854;23.222;2022-07-23T13:00:49;21.17;;;19.77;;
8476;SDS011;4275;42.854;23.222;2022-07-23T13:03:28;20.80;;;19.40;;
8476;SDS011;4275;42.854;23.222;2022-07-23T13:06:02;37.28;;;21.05;;
8476;SDS011;4275;42.854;23.222;2022-07-23T13:08:32;21.02;;;19.63;;
8476;SDS011;4275;42.854;23.222;2022-07-23T13:11:00;20.80;;;19.40;;
8476;SDS011;4275;42.854;23.222;2022-07-23T13:13:28;21.10;;;19.70;;
8476;SDS011;4275;42.854;23.222;2022-07-23T13:15:57;20.77;;;19.38;;
8476;SDS011;4275;42.854;23.222;2022-07-23T13:18:25;21.58;;;20.17;;
8476;SDS011;4275;42.854;23.222;2022-07-23T13:20:53;23.52;;;21.77;;
8476;SDS011;4275;42.854;23.222;2022-07-23T13:23:22;22.25;;;20.77;;
8476;SDS011;4275;42.854;23.222;2022-07-23T13:25:50;22.17;;;20.73;;
8476;SDS011;4275;42.854;23.222;2022-07-23T13:28:18;21.92;;;20.52;;
8476;SDS011;4275;42.854;23.222;2022-07-23T13:30:46;22.25;;;20.75;;
8476;SDS011;4275;42.854;23.222;2022-07-23T13:33:15;21.75;;;20.33;;
8476;SDS011;4275;42.854;23.222;2022-07-23T13:35:43;21.92;;;20.52;;
8476;SDS011;4275;42.854;23.222;2022-07-23T13:38:10;22.30;;;20.90;;
8476;SDS011;4275;42.854;23.222;2022-07-23T13:40:39;21.80;;;20.40;;
8476;SDS011;4275;42.854;23.222;2022-07-23T13:43:09;24.38;;;22.48;;
8476;SDS011;4275;42.854;23.222;2022-07-23T13:45:37;21.48;;;20.08;;
8476;SDS011;4275;42.854;23.222;2022-07-23T13:48:05;21.98;;;20.58;;
8476;SDS011;4275;42.854;23.222;2022-07-23T13:50:33;22.20;;;20.80;;
8476;SDS011;4275;42.854;23.222;2022-07-23T13:53:01;21.77;;;20.38;;
8476;SDS011;4275;42.854;23.222;2022-07-23T13:55:29;22.15;;;20.67;;
8476;SDS011;4275;42.854;23.222;2022-07-23T13:57:58;22.00;;;20.60;;
8476;SDS011;4275;42.854;23.222;2022-07-23T14:00:26;21.98;;;20.58;;
8476;SDS011;4275;42.854;23.222;2022-07-23T14:02:55;21.77;;;20.38;;
8476;SDS011;4275;42.854;23.222;2022-07-23T14:05:23;21.60;;;20.20;;
8476;SDS011;4275;42.854;23.222;2022-07-23T14:07:50;22.00;;;20.60;;
8476;SDS011;4275;42.854;23.222;2022-07-23T14:10:17;22.17;;;20.77;;
8476;SDS011;4275;42.854;23.222;2022-07-23T14:12:46;23.80;;;22.30;;
8476;SDS011;4275;42.854;23.222;2022-07-23T14:15:14;24.80;;;23.20;;
8476;SDS011;4275;42.854;23.222;2022-07-23T14:17:42;24.05;;;22.48;;
8476;SDS011;4275;42.854;23.222;2022-07-23T14:20:12;24.48;;;22.88;;
8476;SDS011;4275;42.854;23.222;2022-07-23T14:22:42;24.38;;;22.77;;
8476;SDS011;4275;42.854;23.222;2022-07-23T14:25:09;34.30;;;32.08;;
8476;SDS011;4275;42.854;23.222;2022-07-23T14:27:37;26.13;;;24.48;;
8476;SDS011;4275;42.854;23.222;2022-07-23T14:30:05;24.50;;;22.90;;
8476;SDS011;4275;42.854;23.222;2022-07-23T14:32:35;25.08;;;23.45;;
8476;SDS011;4275;42.854;23.222;2022-07-23T14:35:03;24.63;;;23.02;;
8476;SDS011;4275;42.854;23.222;2022-07-23T14:37:31;24.08;;;22.48;;
8476;SDS011;4275;42.854;23.222;2022-07-23T14:39:58;25.15;;;23.55;;
8476;SDS011;4275;42.854;23.222;2022-07-23T14:42:25;26.50;;;24.85;;
8476;SDS011;4275;42.854;23.222;2022-07-23T14:44:52;25.55;;;23.95;;
8476;SDS011;4275;42.854;23.222;2022-07-23T14:47:21;22.52;;;21.05;;
8476;SDS011;4275;42.854;23.222;2022-07-23T14:49:49;23.15;;;21.75;;
8476;SDS011;4275;42.854;23.222;2022-07-23T14:52:16;22.20;;;20.80;;
8476;SDS011;4275;42.854;23.222;2022-07-23T14:54:43;22.80;;;21.35;;